Strona główna
METAR-TAF:

METAR-TAF

Lotnisko :

Pocono Mountains Municipal Airport

Mount Pocono, Pensylwania, Stany Zjednoczone

Szerokość geograficzna: 41-08-20N, Długość geograficzna: 075-23-46W, wysokość: 584 m

Aktualna obserwacja pogody

Raport powstał 15 minut temu, godzina 08:36 UTC
Wiatr 14 kt od zachód w porywach dochodzący do 24 kt
Temperatura -1°C
Wilgotność 93%
Ciśnienie 1003 hPa
Widzialność: 16.1 km
Mało chmury na wysokości 400 ft
Rozproszone chmury na wysokości 1000 ft
Przerywane chmury na wysokości 1500 ft

METAR: KMPO 190836Z AUTO 26014G24KT 10SM FEW004 SCT010 BKN015 M01/M02 A2961 RMK AO2 T10111022

czas: 03:51 (08:51 UTC)


TAF: brakujący

Obserwacja i prognoza pogody dla ponad 4000 lotnisk (raport METAR i TAF).

Dostępne stacje oznaczono żółtymi i czerwonymi punktami na mapie.

Najedź kursorem aby zobaczyć nazwę stacji.

Kliknij aby zobaczyć obserwacje i prognozy pogody.

Aby zmienić mapę: kliknij na zielony przycisk z czarnym krzyżykiem, aby powiększyć; na zielony przycisk z myślnikiem, aby pomniejszyć; na zielone strzałki, aby przejść do map sąsiednich.


METAR-TAF: